createdAt,value
2017-07-21T00:00:20.700Z,0
2017-07-21T00:01:21.403Z,0
2017-07-21T00:02:22.105Z,0
2017-07-21T00:03:23.054Z,0
2017-07-21T00:04:23.751Z,0
2017-07-21T00:05:24.459Z,0
2017-07-21T00:06:25.158Z,0
2017-07-21T00:07:25.856Z,0
2017-07-21T00:08:26.802Z,0
2017-07-21T00:09:27.504Z,0
2017-07-21T00:10:28.209Z,0
2017-07-21T00:11:28.916Z,0
2017-07-21T00:12:29.615Z,0
2017-07-21T00:13:30.567Z,0
2017-07-21T00:14:31.282Z,0
2017-07-21T00:15:31.981Z,0
2017-07-21T00:16:32.691Z,0
2017-07-21T00:17:33.403Z,0
2017-07-21T00:18:34.354Z,0
2017-07-21T00:19:35.056Z,0
2017-07-21T00:20:35.754Z,0
2017-07-21T00:21:36.458Z,0
2017-07-21T00:22:37.159Z,0
2017-07-21T00:23:38.109Z,0
2017-07-21T00:24:38.814Z,0
2017-07-21T00:25:39.516Z,0
2017-07-21T00:26:40.216Z,0
2017-07-21T00:27:40.913Z,0
2017-07-21T00:28:41.862Z,0
2017-07-21T00:29:42.563Z,0
2017-07-21T00:30:43.263Z,0
2017-07-21T00:31:43.957Z,0
2017-07-21T00:32:44.655Z,0
2017-07-21T00:33:45.353Z,0
2017-07-21T00:34:46.070Z,0
2017-07-21T00:35:46.768Z,0
2017-07-21T00:36:47.472Z,0
2017-07-21T00:37:48.170Z,0
2017-07-21T00:38:49.123Z,0
2017-07-21T00:39:49.820Z,0
2017-07-21T00:40:50.523Z,0
2017-07-21T00:41:51.225Z,0
2017-07-21T00:42:51.926Z,0
2017-07-21T00:43:52.874Z,0
2017-07-21T00:44:53.572Z,0
2017-07-21T00:45:54.270Z,0
2017-07-21T00:46:54.968Z,0
2017-07-21T00:47:55.667Z,0
2017-07-21T00:48:56.623Z,0
2017-07-21T00:49:57.320Z,0
2017-07-21T00:50:58.020Z,0
2017-07-21T00:51:58.723Z,0
2017-07-21T00:52:59.424Z,0
2017-07-21T00:54:00.377Z,0
2017-07-21T00:55:01.077Z,0
2017-07-21T00:56:01.777Z,0
2017-07-21T00:57:02.475Z,0
2017-07-21T00:58:03.179Z,0
2017-07-21T00:59:04.127Z,0
2017-07-21T01:00:04.829Z,0
2017-07-21T01:01:05.529Z,0
2017-07-21T01:02:06.228Z,0
2017-07-21T01:03:06.927Z,0
2017-07-21T01:04:07.630Z,0
2017-07-21T01:05:08.327Z,0
2017-07-21T01:06:09.023Z,0
2017-07-21T01:07:09.720Z,0
2017-07-21T01:08:10.423Z,0
2017-07-21T01:09:11.123Z,0
2017-07-21T01:10:11.827Z,0
2017-07-21T01:11:12.528Z,0
2017-07-21T01:12:13.226Z,0
2017-07-21T01:13:13.921Z,0
2017-07-21T01:14:14.875Z,0
2017-07-21T01:15:15.574Z,0
2017-07-21T01:16:16.271Z,0
2017-07-21T01:17:16.976Z,0
2017-07-21T01:18:17.682Z,0
2017-07-21T01:19:18.633Z,0
2017-07-21T01:20:19.334Z,0
2017-07-21T01:21:20.035Z,0
2017-07-21T01:22:20.749Z,0
2017-07-21T01:23:21.450Z,0
2017-07-21T01:24:22.407Z,0
2017-07-21T01:25:23.106Z,0
2017-07-21T01:26:23.806Z,0
2017-07-21T01:27:24.511Z,0
2017-07-21T01:28:25.208Z,0
2017-07-21T01:29:26.155Z,0
2017-07-21T01:30:26.854Z,0
2017-07-21T01:31:27.550Z,0
2017-07-21T01:32:28.247Z,0
2017-07-21T01:33:28.949Z,0
2017-07-21T01:34:29.903Z,0
2017-07-21T01:35:30.602Z,0
2017-07-21T01:36:31.299Z,0
2017-07-21T01:37:32.001Z,0
2017-07-21T01:38:32.703Z,0
2017-07-21T01:39:33.654Z,0
2017-07-21T01:40:34.353Z,0
2017-07-21T01:41:35.054Z,0
2017-07-21T01:42:35.750Z,0
2017-07-21T01:43:36.449Z,0
2017-07-21T01:44:37.402Z,0
2017-07-21T01:45:38.096Z,0
2017-07-21T01:46:38.794Z,0
2017-07-21T01:47:39.496Z,0
2017-07-21T01:48:40.207Z,0
2017-07-21T01:49:41.157Z,0
2017-07-21T01:50:41.862Z,0
2017-07-21T01:51:42.584Z,0
2017-07-21T01:52:43.288Z,0
2017-07-21T01:53:43.992Z,0
2017-07-21T01:54:44.947Z,0
2017-07-21T01:55:45.649Z,0
2017-07-21T01:56:46.343Z,0
2017-07-21T01:57:47.046Z,0
2017-07-21T01:58:47.745Z,0
2017-07-21T01:59:48.696Z,0
2017-07-21T02:00:49.404Z,0
2017-07-21T02:01:50.108Z,0
2017-07-21T02:02:50.808Z,0
2017-07-21T02:03:51.504Z,0
2017-07-21T02:04:52.201Z,0
2017-07-21T02:05:52.902Z,0
2017-07-21T02:06:53.609Z,0
2017-07-21T02:07:54.308Z,0
2017-07-21T02:08:55.005Z,0
2017-07-21T02:09:55.950Z,0
2017-07-21T02:10:56.649Z,0
2017-07-21T02:11:57.351Z,0
2017-07-21T02:12:58.054Z,0
2017-07-21T02:13:58.750Z,0
2017-07-21T02:14:59.698Z,0
2017-07-21T02:16:00.397Z,0
2017-07-21T02:17:01.103Z,0
2017-07-21T02:18:01.801Z,0
2017-07-21T02:19:02.503Z,0
2017-07-21T02:20:03.455Z,0
2017-07-21T02:21:04.165Z,0
2017-07-21T02:22:04.863Z,0
2017-07-21T02:23:05.562Z,0
2017-07-21T02:24:06.261Z,0
2017-07-21T02:25:07.215Z,0
2017-07-21T02:26:07.916Z,0
2017-07-21T02:27:08.618Z,0
2017-07-21T02:28:09.321Z,0
2017-07-21T02:29:10.017Z,0
2017-07-21T02:30:10.972Z,0
2017-07-21T02:31:11.671Z,0
2017-07-21T02:32:12.369Z,0
2017-07-21T02:33:13.068Z,0
2017-07-21T02:34:13.784Z,0
2017-07-21T02:35:14.737Z,0
2017-07-21T02:36:15.440Z,0
2017-07-21T02:37:16.141Z,0
2017-07-21T02:38:16.841Z,0
2017-07-21T02:39:17.541Z,0
2017-07-21T02:40:18.243Z,0
2017-07-21T02:41:18.942Z,0
2017-07-21T02:42:19.643Z,0
2017-07-21T02:43:20.339Z,0
2017-07-21T02:44:21.040Z,0
2017-07-21T02:45:21.986Z,0
2017-07-21T02:46:22.690Z,0
2017-07-21T02:47:23.391Z,0
2017-07-21T02:48:24.100Z,0
2017-07-21T02:49:24.810Z,0
2017-07-21T02:50:25.773Z,0
2017-07-21T02:51:26.478Z,0
2017-07-21T02:52:27.177Z,0
2017-07-21T02:53:27.879Z,0
2017-07-21T02:54:28.579Z,0
2017-07-21T02:55:29.530Z,0
2017-07-21T02:56:30.234Z,0
2017-07-21T02:57:30.934Z,0
2017-07-21T02:58:31.635Z,0
2017-07-21T02:59:32.332Z,0
2017-07-21T03:00:33.278Z,0
2017-07-21T03:01:33.978Z,0
2017-07-21T03:02:34.674Z,0
2017-07-21T03:03:35.374Z,0
2017-07-21T03:04:36.102Z,0
2017-07-21T03:05:37.050Z,0
2017-07-21T03:06:37.750Z,0
2017-07-21T03:07:38.456Z,0
2017-07-21T03:08:39.153Z,0
2017-07-21T03:09:39.851Z,0
2017-07-21T03:10:40.803Z,0
2017-07-21T03:11:41.501Z,0
2017-07-21T03:12:42.199Z,0
2017-07-21T03:13:42.892Z,0
2017-07-21T03:14:43.596Z,0
2017-07-21T03:15:44.550Z,0
2017-07-21T03:16:45.250Z,0
2017-07-21T03:17:45.949Z,0
2017-07-21T03:18:46.654Z,0
2017-07-21T03:19:47.353Z,0
2017-07-21T03:20:48.307Z,0
2017-07-21T03:21:49.003Z,0
2017-07-21T03:22:49.702Z,0
2017-07-21T03:23:50.402Z,0
2017-07-21T03:24:51.104Z,0
2017-07-21T03:25:52.052Z,0
2017-07-21T03:26:52.751Z,0
2017-07-21T03:27:53.455Z,0
2017-07-21T03:28:54.158Z,0
2017-07-21T03:29:54.859Z,0
2017-07-21T03:30:55.809Z,0
2017-07-21T03:31:56.512Z,0
2017-07-21T03:32:57.211Z,0
2017-07-21T03:33:57.911Z,0
2017-07-21T03:34:58.608Z,0
2017-07-21T03:35:59.304Z,0
2017-07-21T03:37:00.006Z,0
2017-07-21T03:38:00.709Z,0
2017-07-21T03:39:01.410Z,0
2017-07-21T03:40:02.112Z,0
2017-07-21T03:41:03.067Z,0
2017-07-21T03:42:03.773Z,0
2017-07-21T03:43:04.473Z,5
2017-07-21T03:44:05.173Z,5
2017-07-21T03:45:05.873Z,5
2017-07-21T03:46:06.826Z,5
2017-07-21T03:47:07.532Z,5
2017-07-21T03:48:08.232Z,5
2017-07-21T03:49:08.934Z,5
2017-07-21T03:50:09.631Z,5
2017-07-21T03:51:10.582Z,5
2017-07-21T03:52:11.286Z,5
2017-07-21T03:53:11.989Z,10
2017-07-21T03:54:12.690Z,10
2017-07-21T03:55:13.389Z,10
2017-07-21T03:56:14.345Z,10
2017-07-21T03:57:15.047Z,10
2017-07-21T03:58:15.747Z,10
2017-07-21T03:59:16.457Z,10
2017-07-21T04:00:17.163Z,10
2017-07-21T04:01:18.123Z,10
2017-07-21T04:02:18.826Z,10
2017-07-21T04:03:19.531Z,10
2017-07-21T04:04:20.233Z,10
2017-07-21T04:05:20.937Z,10
2017-07-21T04:06:21.992Z,10
2017-07-21T04:07:22.695Z,10
2017-07-21T04:08:23.397Z,15
2017-07-21T04:09:24.098Z,15
2017-07-21T04:10:24.800Z,15
2017-07-21T04:11:25.801Z,15
2017-07-21T04:12:26.505Z,15
2017-07-21T04:13:27.215Z,20
2017-07-21T04:14:27.917Z,20
2017-07-21T04:15:28.619Z,20
2017-07-21T04:16:29.575Z,20
2017-07-21T04:17:30.278Z,20
2017-07-21T04:18:30.981Z,25
2017-07-21T04:19:31.682Z,25
2017-07-21T04:20:32.385Z,25
2017-07-21T04:21:33.341Z,25
2017-07-21T04:22:34.050Z,25
2017-07-21T04:23:34.754Z,25
2017-07-21T04:24:35.457Z,25
2017-07-21T04:25:36.155Z,25
2017-07-21T04:26:37.115Z,30
2017-07-21T04:27:37.817Z,30
2017-07-21T04:28:38.523Z,30
2017-07-21T04:29:39.230Z,35
2017-07-21T04:30:39.932Z,35
2017-07-21T04:31:40.885Z,35
2017-07-21T04:32:41.584Z,30
2017-07-21T04:33:42.290Z,35
2017-07-21T04:34:42.990Z,35
2017-07-21T04:35:43.695Z,35
2017-07-21T04:36:44.654Z,35
2017-07-21T04:37:45.352Z,35
2017-07-21T04:38:46.056Z,35
2017-07-21T04:39:46.760Z,35
2017-07-21T04:40:47.462Z,40
2017-07-21T04:41:48.411Z,50
2017-07-21T04:42:49.112Z,55
2017-07-21T04:43:49.815Z,55
2017-07-21T04:44:50.516Z,55
2017-07-21T04:45:51.223Z,55
2017-07-21T04:46:52.179Z,55
2017-07-21T04:47:52.884Z,55
2017-07-21T04:48:53.584Z,55
2017-07-21T04:49:54.288Z,55
2017-07-21T04:50:54.997Z,60
2017-07-21T04:51:55.949Z,55
2017-07-21T04:52:56.647Z,55
2017-07-21T04:53:57.365Z,55
2017-07-21T04:54:58.078Z,55
2017-07-21T04:55:58.782Z,50
2017-07-21T04:56:59.741Z,50
2017-07-21T04:58:00.441Z,50
2017-07-21T04:59:01.141Z,50
2017-07-21T05:00:01.855Z,50
2017-07-21T05:01:02.575Z,50
2017-07-21T05:02:03.526Z,50
2017-07-21T05:03:04.238Z,50
2017-07-21T05:04:04.940Z,50
2017-07-21T05:05:05.643Z,50
2017-07-21T05:06:06.346Z,50
2017-07-21T05:07:07.299Z,50
2017-07-21T05:08:08.003Z,50
2017-07-21T05:09:08.713Z,50
2017-07-21T05:10:09.415Z,50
2017-07-21T05:11:10.117Z,50
2017-07-21T05:12:11.079Z,50
2017-07-21T05:13:11.783Z,50
2017-07-21T05:14:12.484Z,50
2017-07-21T05:15:13.185Z,50
2017-07-21T05:16:13.887Z,55
2017-07-21T05:17:14.838Z,55
2017-07-21T05:18:15.540Z,55
2017-07-21T05:19:16.243Z,55
2017-07-21T05:20:16.943Z,55
2017-07-21T05:21:17.645Z,55
2017-07-21T05:22:18.597Z,60
2017-07-21T05:23:19.296Z,60
2017-07-21T05:24:20.002Z,60
2017-07-21T05:25:20.710Z,65
2017-07-21T05:26:21.410Z,65
2017-07-21T05:27:22.411Z,65
2017-07-21T05:28:23.116Z,65
2017-07-21T05:29:23.825Z,65
2017-07-21T05:30:24.531Z,65
2017-07-21T05:31:25.241Z,70
2017-07-21T05:32:26.196Z,70
2017-07-21T05:33:26.898Z,65
2017-07-21T05:34:27.603Z,70
2017-07-21T05:35:28.307Z,70
2017-07-21T05:36:29.010Z,70
2017-07-21T05:37:29.963Z,70
2017-07-21T05:38:30.667Z,75
2017-07-21T05:39:31.376Z,75
2017-07-21T05:40:32.080Z,75
2017-07-21T05:41:32.783Z,75
2017-07-21T05:42:33.742Z,75
2017-07-21T05:43:34.448Z,75
2017-07-21T05:44:35.155Z,75
2017-07-21T05:45:35.856Z,75
2017-07-21T05:46:36.559Z,75
2017-07-21T05:47:37.514Z,75
2017-07-21T05:48:38.215Z,75
2017-07-21T05:49:38.924Z,75
2017-07-21T05:50:39.626Z,75
2017-07-21T05:51:40.327Z,80
2017-07-21T05:52:41.282Z,80
2017-07-21T05:53:41.982Z,80
2017-07-21T05:54:42.686Z,80
2017-07-21T05:55:43.394Z,80
2017-07-21T05:56:44.099Z,80
2017-07-21T05:57:45.051Z,80
2017-07-21T05:58:45.753Z,80
2017-07-21T05:59:46.456Z,80
2017-07-21T06:00:47.160Z,80
2017-07-21T06:01:47.866Z,80
2017-07-21T06:02:48.820Z,80
2017-07-21T06:03:49.523Z,80
2017-07-21T06:04:50.225Z,80
2017-07-21T06:05:50.928Z,85
2017-07-21T06:06:51.631Z,85
2017-07-21T06:07:52.593Z,85
2017-07-21T06:08:53.301Z,85
2017-07-21T06:09:54.003Z,85
2017-07-21T06:10:54.704Z,85
2017-07-21T06:11:55.406Z,85
2017-07-21T06:12:56.359Z,85
2017-07-21T06:13:57.059Z,85
2017-07-21T06:14:57.763Z,80
2017-07-21T06:15:58.467Z,85
2017-07-21T06:16:59.173Z,80
2017-07-21T06:18:00.128Z,80
2017-07-21T06:19:00.833Z,80
2017-07-21T06:20:01.541Z,80
2017-07-21T06:21:02.246Z,80
2017-07-21T06:22:02.949Z,80
2017-07-21T06:23:03.910Z,85
2017-07-21T06:24:04.619Z,85
2017-07-21T06:25:05.322Z,90
2017-07-21T06:26:06.025Z,90
2017-07-21T06:27:06.728Z,90
2017-07-21T06:28:07.684Z,90
2017-07-21T06:29:08.385Z,90
2017-07-21T06:30:09.091Z,90
2017-07-21T06:31:09.801Z,90
2017-07-21T06:32:10.504Z,90
2017-07-21T06:33:11.457Z,90
2017-07-21T06:34:12.163Z,90
2017-07-21T06:35:12.871Z,95
2017-07-21T06:36:13.580Z,95
2017-07-21T06:37:14.287Z,95
2017-07-21T06:38:15.247Z,95
2017-07-21T06:39:15.954Z,95
2017-07-21T06:40:16.659Z,95
2017-07-21T06:41:17.372Z,95
2017-07-21T06:42:18.072Z,95
2017-07-21T06:43:19.025Z,95
2017-07-21T06:44:19.727Z,95
2017-07-21T06:45:20.432Z,95
2017-07-21T06:46:21.144Z,95
2017-07-21T06:47:21.854Z,95
2017-07-21T06:48:23.116Z,95
2017-07-21T06:49:23.821Z,95
2017-07-21T06:50:24.530Z,95
2017-07-21T06:51:25.232Z,95
2017-07-21T06:52:25.939Z,95
2017-07-21T06:53:26.892Z,95
2017-07-21T06:54:27.591Z,95
2017-07-21T06:55:28.296Z,95
2017-07-21T06:56:29.003Z,95
2017-07-21T06:57:29.714Z,95
2017-07-21T06:58:30.671Z,95
2017-07-21T06:59:31.376Z,95
2017-07-21T07:00:32.079Z,95
2017-07-21T07:01:32.785Z,95
2017-07-21T07:02:33.491Z,95
2017-07-21T07:03:34.451Z,95
2017-07-21T07:04:35.154Z,95
2017-07-21T07:05:35.857Z,95
2017-07-21T07:06:36.559Z,95
2017-07-21T07:07:37.273Z,95
2017-07-21T07:08:37.979Z,95
2017-07-21T07:09:38.683Z,95
2017-07-21T07:10:39.383Z,95
2017-07-21T07:11:40.094Z,100
2017-07-21T07:12:40.797Z,100
2017-07-21T07:13:41.511Z,100
2017-07-21T07:14:42.222Z,100
2017-07-21T07:15:42.930Z,100
2017-07-21T07:16:43.637Z,100
2017-07-21T07:17:44.340Z,100
2017-07-21T07:18:45.294Z,100
2017-07-21T07:19:46.001Z,100
2017-07-21T07:20:46.703Z,100
2017-07-21T07:21:47.406Z,100
2017-07-21T07:22:48.122Z,100
2017-07-21T07:23:48.822Z,100
2017-07-21T07:24:49.541Z,100
2017-07-21T07:25:50.244Z,100
2017-07-21T07:26:50.948Z,100
2017-07-21T07:27:51.656Z,100
2017-07-21T07:28:52.617Z,100
2017-07-21T07:29:53.323Z,100
2017-07-21T07:30:54.026Z,100
2017-07-21T07:31:54.735Z,100
2017-07-21T07:32:55.443Z,100
2017-07-21T07:33:56.406Z,100
2017-07-21T07:34:57.112Z,100
2017-07-21T07:35:57.812Z,100
2017-07-21T07:36:58.515Z,100
2017-07-21T07:37:59.219Z,100
2017-07-21T07:39:00.177Z,105
2017-07-21T07:40:00.882Z,105
2017-07-21T07:41:01.590Z,105
2017-07-21T07:42:02.291Z,105
2017-07-21T07:43:02.992Z,105
2017-07-21T07:44:03.945Z,105
2017-07-21T07:45:04.651Z,105
2017-07-21T07:46:05.383Z,105
2017-07-21T07:47:06.110Z,105
2017-07-21T07:48:06.816Z,105
2017-07-21T07:49:07.764Z,105
2017-07-21T07:50:08.469Z,105
2017-07-21T07:51:09.178Z,105
2017-07-21T07:52:09.881Z,105
2017-07-21T07:53:10.593Z,105
2017-07-21T07:54:11.545Z,105
2017-07-21T07:55:12.249Z,105
2017-07-21T07:56:12.957Z,105
2017-07-21T07:57:13.668Z,105
2017-07-21T07:58:14.376Z,105
2017-07-21T07:59:15.084Z,105
2017-07-21T08:00:15.793Z,105
2017-07-21T08:01:16.508Z,105
2017-07-21T08:02:17.222Z,105
2017-07-21T08:03:17.933Z,105
2017-07-21T08:04:18.643Z,105
2017-07-21T08:05:19.354Z,105
2017-07-21T08:06:20.061Z,105
2017-07-21T08:07:20.762Z,105
2017-07-21T08:08:21.469Z,105
2017-07-21T08:09:22.424Z,105
2017-07-21T08:10:23.127Z,110
2017-07-21T08:11:23.852Z,110
2017-07-21T08:12:24.558Z,110
2017-07-21T08:13:25.263Z,110
2017-07-21T08:14:26.233Z,110
2017-07-21T08:15:26.942Z,110
2017-07-21T08:16:27.647Z,110
2017-07-21T08:17:28.349Z,110
2017-07-21T08:18:29.056Z,110
2017-07-21T08:19:30.022Z,110
2017-07-21T08:20:30.740Z,110
2017-07-21T08:21:31.447Z,110
2017-07-21T08:22:32.149Z,110
2017-07-21T08:23:32.858Z,110
2017-07-21T08:24:33.818Z,110
2017-07-21T08:25:34.526Z,110
2017-07-21T08:26:35.227Z,110
2017-07-21T08:27:35.930Z,110
2017-07-21T08:28:36.638Z,110
2017-07-21T08:29:37.604Z,110
2017-07-21T08:30:38.315Z,110
2017-07-21T08:31:39.022Z,110
2017-07-21T08:32:39.731Z,110
2017-07-21T08:33:40.439Z,115
2017-07-21T08:34:41.397Z,115
2017-07-21T08:35:42.104Z,115
2017-07-21T08:36:42.812Z,115
2017-07-21T08:37:43.520Z,115
2017-07-21T08:38:44.238Z,115
2017-07-21T08:39:44.866Z,115
2017-07-21T08:40:45.657Z,115
2017-07-21T08:41:46.364Z,115
2017-07-21T08:42:47.074Z,115
2017-07-21T08:43:47.777Z,115
2017-07-21T08:44:48.738Z,120
2017-07-21T08:45:49.442Z,120
2017-07-21T08:46:50.145Z,120
2017-07-21T08:47:50.854Z,120
2017-07-21T08:48:51.564Z,120
2017-07-21T08:49:52.516Z,120
2017-07-21T08:50:53.226Z,120
2017-07-21T08:51:53.935Z,120
2017-07-21T08:52:54.642Z,120
2017-07-21T08:53:55.347Z,120
2017-07-21T08:54:56.306Z,120
2017-07-21T08:55:57.017Z,120
2017-07-21T08:56:57.724Z,120
2017-07-21T08:57:58.431Z,120
2017-07-21T08:58:59.134Z,125
2017-07-21T09:00:00.095Z,125
2017-07-21T09:01:00.805Z,125
2017-07-21T09:02:01.512Z,125
2017-07-21T09:03:02.225Z,125
2017-07-21T09:04:02.930Z,125
2017-07-21T09:05:03.890Z,125
2017-07-21T09:06:04.593Z,125
2017-07-21T09:07:05.300Z,125
2017-07-21T09:08:06.011Z,125
2017-07-21T09:09:06.713Z,125
2017-07-21T09:10:07.673Z,130
2017-07-21T09:11:08.380Z,130
2017-07-21T09:12:09.087Z,130
2017-07-21T09:13:09.799Z,130
2017-07-21T09:14:10.504Z,130
2017-07-21T09:15:11.458Z,130
2017-07-21T09:16:12.165Z,130
2017-07-21T09:17:12.871Z,130
2017-07-21T09:18:13.575Z,130
2017-07-21T09:19:14.279Z,130
2017-07-21T09:20:15.235Z,135
2017-07-21T09:21:15.938Z,135
2017-07-21T09:22:16.645Z,135
2017-07-21T09:23:17.354Z,135
2017-07-21T09:24:18.060Z,135
2017-07-21T09:25:19.015Z,135
2017-07-21T09:26:19.722Z,135
2017-07-21T09:27:20.428Z,135
2017-07-21T09:28:21.139Z,135
2017-07-21T09:29:21.848Z,135
2017-07-21T09:30:22.800Z,135
2017-07-21T09:31:23.520Z,135
2017-07-21T09:32:24.235Z,135
2017-07-21T09:33:24.946Z,135
2017-07-21T09:34:25.650Z,135
2017-07-21T09:35:26.609Z,135
2017-07-21T09:36:27.325Z,135
2017-07-21T09:37:28.034Z,135
2017-07-21T09:38:28.741Z,135
2017-07-21T09:39:29.454Z,135
2017-07-21T09:40:30.421Z,145
2017-07-21T09:41:31.131Z,140
2017-07-21T09:42:31.855Z,140
2017-07-21T09:43:32.565Z,140
2017-07-21T09:44:33.275Z,140
2017-07-21T09:45:34.240Z,140
2017-07-21T09:46:34.950Z,140
2017-07-21T09:47:35.658Z,140
2017-07-21T09:48:36.365Z,145
2017-07-21T09:49:37.073Z,145
2017-07-21T09:50:38.030Z,145
2017-07-21T09:51:38.742Z,145
2017-07-21T09:52:39.447Z,145
2017-07-21T09:53:40.155Z,145
2017-07-21T09:54:40.864Z,145
2017-07-21T09:55:41.822Z,150
2017-07-21T09:56:42.529Z,150
2017-07-21T09:57:43.236Z,150
2017-07-21T09:58:43.940Z,150
2017-07-21T09:59:44.662Z,150
2017-07-21T10:00:45.620Z,150
2017-07-21T10:01:46.328Z,155
2017-07-21T10:02:47.040Z,155
2017-07-21T10:03:47.755Z,155
2017-07-21T10:04:48.463Z,155
2017-07-21T10:05:49.425Z,160
2017-07-21T10:06:50.132Z,160
2017-07-21T10:07:50.850Z,160
2017-07-21T10:08:51.559Z,160
2017-07-21T10:09:52.266Z,160
2017-07-21T10:10:53.224Z,165
2017-07-21T10:11:53.933Z,165
2017-07-21T10:12:54.641Z,165
2017-07-21T10:13:55.354Z,165
2017-07-21T10:14:56.059Z,165
2017-07-21T10:15:57.014Z,165
2017-07-21T10:16:57.715Z,170
2017-07-21T10:17:58.416Z,170
2017-07-21T10:18:59.126Z,170
2017-07-21T10:19:59.842Z,170
2017-07-21T10:21:00.804Z,170
2017-07-21T10:22:01.515Z,175
2017-07-21T10:23:02.223Z,175
2017-07-21T10:24:02.932Z,175
2017-07-21T10:25:03.643Z,180
2017-07-21T10:26:04.607Z,180
2017-07-21T10:27:05.314Z,180
2017-07-21T10:28:06.023Z,180
2017-07-21T10:29:06.737Z,180
2017-07-21T10:30:07.445Z,180
2017-07-21T10:31:08.411Z,180
2017-07-21T10:32:09.122Z,185
2017-07-21T10:33:09.830Z,185
2017-07-21T10:34:10.548Z,190
2017-07-21T10:35:11.323Z,190
2017-07-21T10:36:12.280Z,200
2017-07-21T10:37:12.985Z,195
2017-07-21T10:38:13.690Z,195
2017-07-21T10:39:14.406Z,195
2017-07-21T10:40:15.113Z,195
2017-07-21T10:41:16.069Z,195
2017-07-21T10:42:16.773Z,200
2017-07-21T10:43:17.479Z,200
2017-07-21T10:44:18.185Z,205
2017-07-21T10:45:18.892Z,205
2017-07-21T10:46:19.848Z,210
2017-07-21T10:47:20.555Z,215
2017-07-21T10:48:21.264Z,210
2017-07-21T10:49:21.976Z,215
2017-07-21T10:50:22.687Z,215
2017-07-21T10:51:23.657Z,215
2017-07-21T10:52:24.370Z,220
2017-07-21T10:53:25.077Z,215
2017-07-21T10:54:25.788Z,215
2017-07-21T10:55:26.497Z,220
2017-07-21T10:56:27.468Z,220
2017-07-21T10:57:28.176Z,220
2017-07-21T10:58:28.882Z,220
2017-07-21T10:59:29.598Z,220
2017-07-21T11:00:30.305Z,220
2017-07-21T11:01:31.269Z,220
2017-07-21T11:02:31.984Z,220
2017-07-21T11:03:32.696Z,230
2017-07-21T11:04:33.405Z,230
2017-07-21T11:05:34.116Z,225
2017-07-21T11:06:34.827Z,225
2017-07-21T11:07:35.530Z,185
2017-07-21T11:08:36.237Z,195
2017-07-21T11:09:37.171Z,235
2017-07-21T11:10:37.882Z,275
2017-07-21T11:11:38.840Z,280
2017-07-21T11:12:39.554Z,280
2017-07-21T11:13:40.264Z,260
2017-07-21T11:14:40.979Z,250
2017-07-21T11:15:41.696Z,245
2017-07-21T11:16:42.664Z,245
2017-07-21T11:17:43.373Z,245
2017-07-21T11:18:44.079Z,245
2017-07-21T11:19:44.791Z,245
2017-07-21T11:20:45.500Z,245
2017-07-21T11:21:46.466Z,250
2017-07-21T11:22:47.181Z,260
2017-07-21T11:23:47.888Z,275
2017-07-21T11:24:48.599Z,285
2017-07-21T11:25:49.313Z,275
2017-07-21T11:26:50.277Z,270
2017-07-21T11:27:50.986Z,275
2017-07-21T11:28:51.699Z,270
2017-07-21T11:29:52.408Z,275
2017-07-21T11:30:53.132Z,285
2017-07-21T11:31:53.846Z,295
2017-07-21T11:32:54.554Z,290
2017-07-21T11:33:55.261Z,295
2017-07-21T11:34:55.978Z,295
2017-07-21T11:35:56.698Z,290
2017-07-21T11:36:57.658Z,285
2017-07-21T11:37:58.371Z,290
2017-07-21T11:38:59.084Z,290
2017-07-21T11:39:59.803Z,290
2017-07-21T11:41:00.512Z,295
2017-07-21T11:42:01.485Z,295
2017-07-21T11:43:02.204Z,305
2017-07-21T11:44:02.915Z,305
2017-07-21T11:45:03.628Z,305
2017-07-21T11:46:04.339Z,325
2017-07-21T11:47:05.306Z,320
2017-07-21T11:48:06.029Z,320
2017-07-21T11:49:06.738Z,315
2017-07-21T11:50:07.457Z,305
2017-07-21T11:51:08.178Z,305
2017-07-21T11:52:09.142Z,310
2017-07-21T11:53:09.847Z,310
2017-07-21T11:54:10.553Z,315
2017-07-21T11:55:11.266Z,315
2017-07-21T11:56:11.972Z,315
2017-07-21T11:57:12.930Z,320
2017-07-21T11:58:13.639Z,345
2017-07-21T11:59:14.352Z,355
2017-07-21T12:00:15.060Z,375
2017-07-21T12:01:15.779Z,350
2017-07-21T12:02:16.738Z,335
2017-07-21T12:03:17.445Z,335
2017-07-21T12:04:18.154Z,330
2017-07-21T12:05:18.867Z,275
2017-07-21T12:06:19.578Z,370
2017-07-21T12:07:20.539Z,350
2017-07-21T12:08:21.243Z,345
2017-07-21T12:09:21.957Z,360
2017-07-21T12:10:22.669Z,365
2017-07-21T12:11:23.375Z,360
2017-07-21T12:12:24.331Z,360
2017-07-21T12:13:25.042Z,360
2017-07-21T12:14:25.753Z,365
2017-07-21T12:15:26.463Z,365
2017-07-21T12:16:27.183Z,355
2017-07-21T12:17:28.151Z,350
2017-07-21T12:18:28.862Z,355
2017-07-21T12:19:29.569Z,355
2017-07-21T12:20:30.277Z,375
2017-07-21T12:21:30.984Z,405
2017-07-21T12:22:31.943Z,410
2017-07-21T12:23:32.651Z,395
2017-07-21T12:24:33.363Z,380
2017-07-21T12:25:34.072Z,375
2017-07-21T12:26:34.778Z,365
2017-07-21T12:27:35.740Z,360
2017-07-21T12:28:36.449Z,360
2017-07-21T12:29:37.160Z,360
2017-07-21T12:30:37.876Z,370
2017-07-21T12:31:38.586Z,360
2017-07-21T12:32:39.546Z,350
2017-07-21T12:33:40.257Z,350
2017-07-21T12:34:40.966Z,350
2017-07-21T12:35:41.675Z,350
2017-07-21T12:36:42.383Z,360
2017-07-21T12:37:43.345Z,370
2017-07-21T12:38:44.050Z,375
2017-07-21T12:39:44.767Z,365
2017-07-21T12:40:45.479Z,360
2017-07-21T12:41:46.192Z,360
2017-07-21T12:42:47.160Z,365
2017-07-21T12:43:47.869Z,365
2017-07-21T12:44:48.579Z,360
2017-07-21T12:45:49.290Z,360
2017-07-21T12:46:50.000Z,355
2017-07-21T12:47:50.960Z,355
2017-07-21T12:48:51.667Z,355
2017-07-21T12:49:52.375Z,360
2017-07-21T12:50:53.084Z,370
2017-07-21T12:51:53.796Z,385
2017-07-21T12:52:54.759Z,385
2017-07-21T12:53:55.471Z,385
2017-07-21T12:54:56.183Z,395
2017-07-21T12:55:56.899Z,390
2017-07-21T12:56:57.614Z,390
2017-07-21T12:57:58.327Z,390
2017-07-21T12:58:59.052Z,295
2017-07-21T12:59:59.765Z,365
2017-07-21T13:01:00.476Z,330
2017-07-21T13:02:01.184Z,360
2017-07-21T13:03:01.895Z,440
2017-07-21T13:04:02.604Z,455
2017-07-21T13:05:03.320Z,455
2017-07-21T13:06:04.030Z,415
2017-07-21T13:07:04.739Z,400
2017-07-21T13:08:05.718Z,390
2017-07-21T13:09:06.427Z,410
2017-07-21T13:10:07.139Z,430
2017-07-21T13:11:07.854Z,430
2017-07-21T13:12:08.561Z,425
2017-07-21T13:13:09.530Z,435
2017-07-21T13:14:10.243Z,445
2017-07-21T13:15:10.961Z,430
2017-07-21T13:16:11.672Z,410
2017-07-21T13:17:12.383Z,440
2017-07-21T13:18:13.349Z,450
2017-07-21T13:19:14.068Z,430
2017-07-21T13:20:14.788Z,420
2017-07-21T13:21:15.506Z,415
2017-07-21T13:22:16.217Z,420
2017-07-21T13:23:17.179Z,435
2017-07-21T13:24:17.892Z,435
2017-07-21T13:25:18.619Z,430
2017-07-21T13:26:19.334Z,420
2017-07-21T13:27:20.048Z,415
2017-07-21T13:28:21.025Z,405
2017-07-21T13:29:21.741Z,405
2017-07-21T13:30:22.452Z,405
2017-07-21T13:31:23.167Z,420
2017-07-21T13:32:23.879Z,440
2017-07-21T13:33:24.849Z,430
2017-07-21T13:34:25.562Z,315
2017-07-21T13:35:26.274Z,330
2017-07-21T13:36:26.989Z,480
2017-07-21T13:37:27.699Z,515
2017-07-21T13:38:28.661Z,530
2017-07-21T13:39:29.372Z,520
2017-07-21T13:40:30.083Z,495
2017-07-21T13:41:30.803Z,505
2017-07-21T13:42:31.514Z,500
2017-07-21T13:43:32.471Z,490
2017-07-21T13:44:33.180Z,490
2017-07-21T13:45:33.892Z,465
2017-07-21T13:46:34.605Z,455
2017-07-21T13:47:35.316Z,450
2017-07-21T13:48:36.280Z,445
2017-07-21T13:49:36.997Z,440
2017-07-21T13:50:37.710Z,445
2017-07-21T13:51:38.437Z,445
2017-07-21T13:52:39.154Z,455
2017-07-21T13:53:40.124Z,475
2017-07-21T13:54:40.836Z,485
2017-07-21T13:55:41.557Z,505
2017-07-21T13:56:42.268Z,535
2017-07-21T13:57:42.982Z,525
2017-07-21T13:58:43.945Z,580
2017-07-21T13:59:44.667Z,620
2017-07-21T14:00:45.380Z,1210
2017-07-21T14:01:46.093Z,1980
2017-07-21T14:02:46.807Z,2205
2017-07-21T14:03:47.670Z,2175
2017-07-21T14:04:48.390Z,2230
2017-07-21T14:05:49.113Z,2260
2017-07-21T14:06:49.838Z,2195
2017-07-21T14:07:50.548Z,2210
2017-07-21T14:08:51.511Z,2300
2017-07-21T14:09:52.227Z,2125
2017-07-21T14:10:52.948Z,2030
2017-07-21T14:11:53.662Z,2050
2017-07-21T14:12:54.383Z,2110
2017-07-21T14:13:55.098Z,2090
2017-07-21T14:14:55.814Z,2145
2017-07-21T14:15:56.526Z,2115
2017-07-21T14:16:57.246Z,2170
2017-07-21T14:17:57.970Z,1480
2017-07-21T14:18:58.938Z,2160